Overview Statistics Trail Chart Weather Telemetry Raw packets
 

This is the latest recevied weather packets stored in our database for station/object SV9TNF-52. If no packets are shown the sender has not sent any weather packets the latest 10 day(s).

<< 111 112 113 114 115 116 >>
Time Temp. Humidity Pressure Rain* Wind** Luminosity Snow
1787828191 31.67° C 61% 1020.7 hPa 0 mm 5.81 m/s, 118° - -
1787827891 31.67° C 59% 1020.7 hPa 0 mm 7.15 m/s, 0° - -
1787827590 31.67° C 60% 1020.7 hPa 0 mm 3.58 m/s, 45° - -
1787827291 31.67° C 59% 1020.7 hPa 0 mm 8.94 m/s, 12° - -
1787826991 32.78° C 58% 1020.7 hPa 0 mm 5.36 m/s, 351° - -
1787826691 32.22° C 57% 1020.7 hPa 0 mm 6.26 m/s, 170° - -
1787826390 32.22° C 56% 1020.7 hPa 0 mm 4.92 m/s, 248° - -
1787826090 32.78° C 58% 1020.7 hPa 0 mm 4.47 m/s, 230° - -
1787825790 32.78° C 56% 1020.7 hPa 0 mm 5.81 m/s, 345° - -
1787825490 32.78° C 56% 1020.7 hPa 0 mm 5.81 m/s, 276° - -
1787825190 32.78° C 56% 1020.7 hPa 0 mm 5.81 m/s, 189° - -
1787824890 32.78° C 56% 1020.7 hPa 0 mm 5.81 m/s, 261° - -
1787824289 32.78° C 57% 1020.7 hPa 0 mm 5.36 m/s, 247° - -
1787823989 32.78° C 56% 1020.7 hPa 0 mm 6.26 m/s, 262° - -
1787823689 33.33° C 55% 1020.7 hPa 0 mm 3.58 m/s, 237° - -
1787823389 33.33° C 56% 1020.7 hPa 0 mm 2.68 m/s, 326° - -
1787823089 33.33° C 55% 1020.7 hPa 0 mm 6.71 m/s, 292° - -
1787822789 32.78° C 54% 1020.7 hPa 0 mm 3.58 m/s, 73° - -
1787822489 32.78° C 55% 1020.7 hPa 0 mm 3.13 m/s, 266° - -
1787822189 32.78° C 55% 1020.7 hPa 0 mm 4.92 m/s, 234° - -
1787821889 32.78° C 55% 1020.7 hPa 0 mm 4.02 m/s, 341° - -
1787821589 32.78° C 57% 1020.7 hPa 0 mm 3.58 m/s, 322° - -
1787821289 32.22° C 56% 1020.7 hPa 0 mm 4.92 m/s, 229° - -
1787820988 32.22° C 58% 1020.7 hPa 0 mm 6.26 m/s, 356° - -
1787820688 32.22° C 57% 1020.7 hPa 0 mm 4.47 m/s, 308° - -

* Rain latest hour (hover to see other rain measurements)
** Current wind speed in m/s (hover to see current wind gust speed)